Time;durP1;ratioP1;P1;durP2;ratioP2;P2;SDS_P1;SDS_P2;PMS_P1;PMS_P2;Temp;Humidity;BMP_temperature;BMP_pressure;BME280_temperature;BME280_humidity;BME280_pressure;Samples;Min_cycle;Max_cycle;Signal;HPM_P1;HPM_P2
2024/01/24 00:01:43;;;;;;;5.35;2.13;;;;;;;11.50;100.00;101317.66;4965424;29;20034;-89
2024/01/24 00:04:08;;;;;;;3.83;1.90;;;;;;;11.64;100.00;101304.53;4973274;29;20041;-88
2024/01/24 00:06:33;;;;;;;3.30;1.90;;;;;;;11.46;100.00;101294.34;4957232;29;20031;-89
2024/01/24 00:09:14;;;;;;;5.10;1.90;;;;;;;11.53;100.00;101311.59;4956106;29;20031;-87
2024/01/24 00:11:39;;;;;;;6.05;2.10;;;;;;;11.45;100.00;101303.88;4956471;28;20058;-88
2024/01/24 00:14:23;;;;;;;3.53;1.83;;;;;;;11.46;100.00;101335.91;4955063;29;20031;-88
2024/01/24 00:16:49;;;;;;;5.43;2.05;;;;;;;11.56;100.00;101335.81;4955398;29;20034;-87
2024/01/24 00:19:29;;;;;;;5.27;1.83;;;;;;;11.58;100.00;101322.78;4955244;29;20055;-88
2024/01/24 00:21:55;;;;;;;4.65;1.70;;;;;;;11.55;100.00;101323.69;4955662;29;20090;-88
2024/01/24 00:24:32;;;;;;;4.40;2.10;;;;;;;11.59;100.00;101327.09;4955700;29;20475;-88
2024/01/24 00:26:57;;;;;;;3.75;1.80;;;;;;;11.59;100.00;101322.78;4955556;29;20086;-87
2024/01/24 00:29:39;;;;;;;2.97;1.87;;;;;;;11.62;100.00;101311.47;4955584;29;20380;-87
2024/01/24 00:32:04;;;;;;;4.75;1.70;;;;;;;11.62;100.00;101313.19;4955436;29;20027;-86
2024/01/24 00:34:50;;;;;;;2.47;1.50;;;;;;;11.63;100.00;101300.22;4954980;28;20046;-87
2024/01/24 00:37:15;;;;;;;;;;;;;;;11.72;100.00;101307.88;4955521;29;20039;-88
2024/01/24 00:39:53;;;;;;;4.10;1.53;;;;;;;11.72;100.00;101294.00;4955476;29;19921;-88
2024/01/24 00:42:18;;;;;;;2.00;1.50;;;;;;;11.71;100.00;101300.09;4954595;29;20031;-89
2024/01/24 00:45:02;;;;;;;4.63;1.60;;;;;;;11.77;100.00;101301.75;4955595;29;20028;-88
2024/01/24 00:47:28;;;;;;;2.08;1.88;;;;;;;11.79;100.00;101300.00;4955010;29;20364;-87
2024/01/24 00:49:53;;;;;;;2.37;1.60;;;;;;;11.81;100.00;101303.44;4954848;29;20030;-88
2024/01/24 00:52:42;;;;;;;3.87;1.70;;;;;;;11.79;100.00;101302.59;4955053;29;20030;-88
2024/01/24 00:55:08;;;;;;;3.65;1.88;;;;;;;11.82;100.00;101302.56;4954759;29;20031;-88
2024/01/24 00:57:52;;;;;;;2.08;1.70;;;;;;;11.72;100.00;101294.00;4953844;29;20468;-87
2024/01/24 01:00:17;;;;;;;2.63;1.60;;;;;;;11.68;100.00;101281.94;4955048;29;20028;-89
2024/01/24 01:02:54;;;;;;;2.23;1.60;;;;;;;11.73;100.00;101286.22;4936622;28;20031;-88
2024/01/24 01:05:19;;;;;;;1.92;1.70;;;;;;;11.71;100.00;101293.16;4935729;29;20166;-86
2024/01/24 01:08:09;;;;;;;2.40;1.60;;;;;;;11.68;100.00;101282.78;4935761;29;20559;-87
2024/01/24 01:10:35;;;;;;;2.78;1.70;;;;;;;11.60;100.00;101276.84;4934608;29;20110;-87
2024/01/24 01:13:00;;;;;;;2.70;1.70;;;;;;;11.47;100.00;101270.94;4935806;29;20115;-87
2024/01/24 01:15:38;;;;;;;3.60;1.80;;;;;;;11.39;100.00;101263.22;4935367;29;20055;-87
2024/01/24 01:18:03;;;;;;;3.45;1.55;;;;;;;11.44;100.00;101270.97;4934393;29;20024;-87
2024/01/24 01:20:41;;;;;;;2.80;1.60;;;;;;;11.32;100.00;101256.38;4935274;29;20099;-87
2024/01/24 01:23:06;;;;;;;3.75;1.75;;;;;;;11.34;100.00;101253.78;4934455;29;20119;-87
2024/01/24 01:25:43;;;;;;;2.80;1.90;;;;;;;11.27;100.00;101269.41;4935062;29;20515;-87
2024/01/24 01:28:23;;;;;;;2.10;1.90;;;;;;;11.30;100.00;101267.66;4935338;29;20465;-87
2024/01/24 01:30:48;;;;;;;3.30;1.60;;;;;;;11.33;100.00;101276.28;4934824;29;20071;-88
2024/01/24 01:33:19;;;;;;;3.53;1.90;;;;;;;11.28;100.00;101258.16;4935417;29;20028;-87
2024/01/24 01:35:44;;;;;;;1.88;1.58;;;;;;;11.27;100.00;101260.78;4935289;29;20039;-89
2024/01/24 01:38:22;;;;;;;2.60;1.70;;;;;;;11.26;100.00;101265.09;4937689;29;20408;-87
2024/01/24 01:40:59;;;;;;;2.20;1.60;;;;;;;11.20;100.00;101265.19;4954761;29;20042;-88
2024/01/24 01:43:39;;;;;;;3.08;1.70;;;;;;;11.20;100.00;101272.97;4954394;29;20468;-88
2024/01/24 01:46:11;;;;;;;1.60;1.50;;;;;;;11.24;100.00;101285.06;4953623;29;20494;-87
2024/01/24 01:48:37;;;;;;;1.90;1.60;;;;;;;11.29;100.00;101292.81;4954305;29;20476;-87
2024/01/24 01:51:03;;;;;;;1.70;1.60;;;;;;;11.24;100.00;101291.97;4953815;29;20028;-87
2024/01/24 01:53:28;;;;;;;1.83;1.70;;;;;;;11.22;100.00;101280.75;4953982;28;20464;-88
2024/01/24 01:55:54;;;;;;;2.03;1.50;;;;;;;11.17;100.00;101288.59;4954971;29;20028;-87
2024/01/24 01:58:21;;;;;;;1.83;1.17;;;;;;;11.18;100.00;101290.31;4953613;29;20039;-86
2024/01/24 02:00:49;;;;;;;1.60;1.50;;;;;;;11.13;100.00;101274.78;4954211;29;20038;-87
2024/01/24 02:03:14;;;;;;;1.67;1.58;;;;;;;11.09;100.00;101291.25;4953823;29;20122;-87
2024/01/24 02:05:39;;;;;;;1.80;1.40;;;;;;;11.08;100.00;101275.69;4936044;29;20110;-87
2024/01/24 02:08:06;;;;;;;2.00;1.33;;;;;;;11.03;100.00;101267.97;4934847;29;20038;-88
2024/01/24 02:10:31;;;;;;;;;;;;;;;11.00;100.00;101274.91;4935664;29;20071;-87
2024/01/24 02:12:56;;;;;;;1.80;1.30;;;;;;;10.98;100.00;101264.53;4933812;29;19914;-86
2024/01/24 02:15:22;;;;;;;1.63;1.50;;;;;;;10.93;100.00;101258.53;4934052;29;20123;-86
2024/01/24 02:17:47;;;;;;;1.87;1.50;;;;;;;10.92;100.00;101268.06;4934733;29;20424;-86
2024/01/24 02:20:13;;;;;;;1.30;1.27;;;;;;;10.89;100.00;101269.81;4933472;29;20143;-86
2024/01/24 02:22:57;;;;;;;1.02;1.02;;;;;;;10.89;100.00;101262.03;4934531;29;20028;-87
2024/01/24 02:25:22;;;;;;;2.00;1.20;;;;;;;10.80;100.00;101258.66;4934731;29;20032;-87
2024/01/24 02:28:06;;;;;;;1.10;1.10;;;;;;;10.84;100.00;101261.22;4934583;29;20095;-87
2024/01/24 02:30:32;;;;;;;1.25;1.15;;;;;;;10.71;100.00;101245.78;4934256;29;20028;-86
2024/01/24 02:33:13;;;;;;;1.23;1.10;;;;;;;10.80;100.00;101261.25;4934560;29;20483;-86
2024/01/24 02:35:38;;;;;;;1.17;1.10;;;;;;;10.79;100.00;101264.72;4942685;29;20019;-86
2024/01/24 02:38:03;;;;;;;0.77;0.77;;;;;;;10.76;100.00;101280.31;4957419;29;20042;-87
2024/01/24 02:40:40;;;;;;;0.93;0.93;;;;;;;10.75;100.00;101276.00;4957313;29;20492;-88
2024/01/24 02:43:23;;;;;;;1.02;0.93;;;;;;;10.71;100.00;101287.31;4957458;29;20042;-88
2024/01/24 02:45:49;;;;;;;0.95;0.90;;;;;;;10.69;100.00;101278.66;4957934;28;20031;-88
2024/01/24 02:48:29;;;;;;;0.80;0.80;;;;;;;10.66;100.00;101271.78;4957287;29;20386;-89
2024/01/24 02:50:55;;;;;;;0.95;0.95;;;;;;;10.71;100.00;101268.25;4954312;29;20028;-87
2024/01/24 02:53:29;;;;;;;0.70;0.70;;;;;;;10.75;100.00;101290.72;4938471;29;20035;-88
2024/01/24 02:56:07;;;;;;;1.45;1.15;;;;;;;10.68;100.00;101276.09;4938388;29;20047;-88
2024/01/24 02:58:32;;;;;;;1.63;1.30;;;;;;;10.73;100.00;101257.00;4938603;29;20056;-88
2024/01/24 03:01:09;;;;;;;1.20;1.10;;;;;;;10.76;100.00;101250.91;4938394;29;20107;-88
2024/01/24 03:03:37;;;;;;;1.20;1.20;;;;;;;10.86;100.00;101259.50;4938265;29;20469;-88
2024/01/24 03:06:08;;;;;;;1.30;1.20;;;;;;;10.78;100.00;101254.38;4937924;29;20425;-89
2024/01/24 03:08:56;;;;;;;1.50;1.40;;;;;;;10.81;100.00;101249.13;4920939;29;20072;-88
2024/01/24 03:11:30;;;;;;;1.88;1.77;;;;;;;10.71;100.00;101243.19;4937961;29;20023;-88
2024/01/24 03:13:56;;;;;;;2.30;2.10;;;;;;;10.81;100.00;101262.09;4938259;29;20031;-88
2024/01/24 03:16:34;;;;;;;2.10;2.00;;;;;;;10.84;100.00;101249.09;4937942;29;20035;-89
2024/01/24 03:18:59;;;;;;;2.28;2.08;;;;;;;10.89;100.00;101262.91;4938097;29;20055;-88
2024/01/24 03:21:46;;;;;;;2.40;2.20;;;;;;;10.79;100.00;101267.31;4938180;29;20028;-88
2024/01/24 03:24:26;;;;;;;2.63;2.10;;;;;;;10.90;100.00;101275.03;4932743;29;20121;-88
2024/01/24 03:27:07;;;;;;;3.28;2.10;;;;;;;10.90;100.00;101285.41;4938565;29;20034;-88
2024/01/24 03:29:32;;;;;;;3.13;2.10;;;;;;;10.88;100.00;101288.88;4953006;29;20523;-86
2024/01/24 03:32:11;;;;;;;2.33;2.17;;;;;;;10.89;100.00;101288.88;4956848;29;20110;-89
2024/01/24 03:34:36;;;;;;;3.00;1.98;;;;;;;10.92;100.00;101295.78;4957106;29;20094;-88
2024/01/24 03:37:02;;;;;;;3.20;2.00;;;;;;;11.01;100.00;101324.25;4956403;29;20417;-88
2024/01/24 03:39:35;;;;;;;4.67;2.00;;;;;;;11.05;100.00;101328.53;4957548;29;20023;-88
2024/01/24 03:42:01;;;;;;;3.85;2.00;;;;;;;11.04;100.00;101346.72;4957801;29;20070;-89
2024/01/24 03:44:45;;;;;;;1.90;1.80;;;;;;;11.03;100.00;101322.50;4956791;29;20023;-88
2024/01/24 03:47:25;;;;;;;3.50;1.80;;;;;;;11.02;100.00;101351.09;4956088;28;20039;-87
2024/01/24 03:49:50;;;;;;;2.25;1.83;;;;;;;11.08;100.00;101359.69;4958075;29;20042;-88
2024/01/24 03:52:16;;;;;;;8.30;2.30;;;;;;;11.07;100.00;101368.38;4957700;29;20027;-88
2024/01/24 03:54:54;;;;;;;5.73;1.93;;;;;;;11.07;100.00;101332.00;4957847;28;20062;-88
2024/01/24 03:57:19;;;;;;;5.28;1.50;;;;;;;11.17;100.00;101363.91;4957630;29;20055;-87
2024/01/24 03:59:53;;;;;;;3.07;1.73;;;;;;;11.09;100.00;101353.59;4957786;29;20034;-87
2024/01/24 04:02:19;;;;;;;5.40;1.73;;;;;;;11.13;100.00;101347.50;4958410;29;20016;-87
2024/01/24 04:04:44;;;;;;;5.97;1.60;;;;;;;11.09;100.00;101364.00;4958377;29;20070;-88
2024/01/24 04:07:27;;;;;;;4.00;1.77;;;;;;;11.11;100.00;101330.22;4959800;29;20027;-89
2024/01/24 04:09:52;;;;;;;6.15;1.60;;;;;;;11.07;100.00;101323.31;4961177;29;20038;-88
2024/01/24 04:12:27;;;;;;;9.23;1.90;;;;;;;11.11;100.00;101345.81;4961069;28;20031;-87
2024/01/24 04:14:52;;;;;;;6.30;1.80;;;;;;;11.11;100.00;101356.19;4964777;29;20028;-87
2024/01/24 04:17:33;;;;;;;9.07;2.20;;;;;;;11.08;100.00;101328.53;4968016;29;20032;-88
2024/01/24 04:19:58;;;;;;;10.07;2.25;;;;;;;11.12;100.00;101350.13;4957184;28;20047;-87
2024/01/24 04:22:42;;;;;;;11.07;2.17;;;;;;;11.09;100.00;101370.94;4955235;29;20385;-88
2024/01/24 04:25:08;;;;;;;12.35;2.70;;;;;;;10.95;100.00;101351.13;4955450;29;20019;-86
2024/01/24 04:27:45;;;;;;;10.10;2.33;;;;;;;11.01;100.00;101376.19;4954529;28;20039;-87
2024/01/24 04:30:11;;;;;;;11.07;2.20;;;;;;;10.97;100.00;101377.97;4954401;29;20031;-86
2024/01/24 04:32:52;;;;;;;11.03;2.30;;;;;;;10.96;100.00;101403.94;4954689;29;20093;-86
2024/01/24 04:35:18;;;;;;;10.77;2.40;;;;;;;10.94;100.00;101397.91;4955167;29;20027;-86
2024/01/24 04:37:43;;;;;;;10.30;2.40;;;;;;;10.85;100.00;101408.38;4955358;29;20027;-86
2024/01/24 04:40:24;;;;;;;11.53;2.70;;;;;;;10.87;100.00;101415.25;4954416;29;20024;-86
2024/01/24 04:42:49;;;;;;;15.05;3.10;;;;;;;10.99;100.00;101388.31;4955262;29;20480;-87
2024/01/24 04:45:34;;;;;;;15.43;2.97;;;;;;;11.02;100.00;101418.63;4955210;28;20028;-88
2024/01/24 04:47:59;;;;;;;13.60;2.67;;;;;;;10.89;100.00;101410.94;4955185;29;20090;-86
2024/01/24 04:50:33;;;;;;;12.67;2.77;;;;;;;10.92;100.00;101428.22;4954961;29;20483;-88
2024/01/24 04:52:59;;;;;;;13.73;2.55;;;;;;;10.87;100.00;101415.25;4954825;29;20055;-88
2024/01/24 04:55:24;;;;;;;9.23;2.43;;;;;;;10.84;100.00;101410.09;4954283;29;20023;-88
2024/01/24 04:58:08;;;;;;;11.43;2.73;;;;;;;10.80;100.00;101372.06;4954384;28;20098;-87
2024/01/24 05:00:33;;;;;;;16.63;3.30;;;;;;;10.79;100.00;101402.34;4954470;29;20031;-88
2024/01/24 05:03:16;;;;;;;15.47;3.00;;;;;;;10.75;100.00;101400.63;4954840;29;20499;-87
2024/01/24 05:05:42;;;;;;;15.77;3.20;;;;;;;10.75;100.00;101411.00;4954652;29;20019;-89
2024/01/24 05:08:25;;;;;;;14.67;3.00;;;;;;;10.73;100.00;101409.28;4953796;29;20115;-86
2024/01/24 05:11:09;;;;;;;14.95;2.80;;;;;;;10.69;100.00;101410.22;4954762;29;20395;-87
2024/01/24 05:13:34;;;;;;;20.25;3.35;;;;;;;10.74;100.00;101429.19;4953214;29;20491;-87
2024/01/24 05:16:00;;;;;;;16.67;3.10;;;;;;;10.78;100.00;101455.13;4954376;29;20159;-86
2024/01/24 05:18:37;;;;;;;16.23;3.20;;;;;;;10.70;100.00;101448.25;4954303;29;20058;-86
2024/01/24 05:21:03;;;;;;;17.98;3.50;;;;;;;10.77;100.00;101470.72;4935877;29;20047;-88
2024/01/24 05:23:54;;;;;;;19.07;3.93;;;;;;;10.82;100.00;101480.22;4935048;29;20023;-88
2024/01/24 05:26:19;;;;;;;16.60;3.67;;;;;;;10.83;100.00;101470.69;4935257;29;20023;-86
2024/01/24 05:28:54;;;;;;;18.30;3.77;;;;;;;10.83;99.87;101470.69;4935845;29;20325;-90
2024/01/24 05:31:20;;;;;;;15.07;3.10;;;;;;;10.71;100.00;101458.66;4934937;29;20027;-87
2024/01/24 05:34:00;;;;;;;15.17;3.00;;;;;;;10.80;100.00;101481.94;4935527;29;20031;-87
2024/01/24 05:36:26;;;;;;;18.05;3.60;;;;;;;10.72;100.00;101457.78;4935299;29;20062;-88
2024/01/24 05:38:51;;;;;;;20.00;3.73;;;;;;;10.64;99.77;101442.25;4935649;29;20046;-88
2024/01/24 05:41:28;;;;;;;17.20;3.47;;;;;;;10.60;100.00;101470.81;4934977;29;20377;-88
2024/01/24 05:43:54;;;;;;;16.15;3.40;;;;;;;10.71;100.00;101486.31;4934724;29;20024;-86
2024/01/24 05:46:19;;;;;;;16.67;3.70;;;;;;;10.62;100.00;101469.94;4934923;29;20102;-89
2024/01/24 05:49:00;;;;;;;19.53;3.40;;;;;;;10.66;100.00;101479.44;4928014;29;20420;-86
2024/01/24 05:51:26;;;;;;;18.23;3.45;;;;;;;10.58;100.00;101455.28;4915320;29;20115;-87
2024/01/24 05:54:09;;;;;;;19.70;3.43;;;;;;;10.62;100.00;101476.88;4916452;29;20110;-89
2024/01/24 05:56:35;;;;;;;17.65;3.67;;;;;;;10.62;100.00;101495.91;4916025;29;20198;-87
2024/01/24 05:59:00;;;;;;;17.53;3.87;;;;;;;10.55;99.90;101476.03;4915904;29;20488;-86
2024/01/24 06:01:26;;;;;;;20.47;3.77;;;;;;;10.65;99.14;101482.03;4915894;29;20028;-88
2024/01/24 06:03:57;;;;;;;20.33;3.90;;;;;;;10.50;99.58;101470.00;4915651;29;20031;-87
2024/01/24 06:06:23;;;;;;;21.73;4.32;;;;;;;10.54;100.00;101468.25;4915710;29;20115;-87
2024/01/24 06:08:48;;;;;;;19.70;4.17;;;;;;;10.51;99.62;101497.69;4916508;29;20433;-86
2024/01/24 06:11:28;;;;;;;19.33;3.90;;;;;;;10.53;100.00;101502.88;4919233;29;20119;-86
2024/01/24 06:13:54;;;;;;;20.70;3.80;;;;;;;10.51;99.84;101534.00;4919536;29;20110;-86
2024/01/24 06:16:40;;;;;;;19.30;3.80;;;;;;;10.54;99.34;101518.44;4919275;29;20464;-87
2024/01/24 06:19:07;;;;;;;20.30;3.72;;;;;;;10.53;98.07;101545.25;4922811;29;20067;-87
2024/01/24 06:21:50;;;;;;;21.35;4.18;;;;;;;10.40;98.33;101530.59;4938454;29;20051;-87
2024/01/24 06:24:16;;;;;;;21.60;4.20;;;;;;;10.42;98.41;101547.03;4938718;29;20033;-88
2024/01/24 06:26:59;;;;;;;21.67;4.27;;;;;;;10.47;96.81;101545.28;4937935;29;20111;-87
2024/01/24 06:29:37;;;;;;;22.90;4.35;;;;;;;10.54;94.79;101564.28;4938261;29;20024;-88
2024/01/24 06:32:02;;;;;;;22.13;4.05;;;;;;;10.50;96.16;101571.22;4951726;29;20115;-85
2024/01/24 06:34:27;;;;;;;21.33;4.57;;;;;;;10.47;95.72;101589.41;4956350;29;20095;-88
2024/01/24 06:37:11;;;;;;;21.63;3.97;;;;;;;10.34;95.61;101581.63;4957719;29;20024;-87
2024/01/24 06:39:53;;;;;;;21.15;3.90;;;;;;;10.30;94.69;101608.44;4957364;28;20478;-87
2024/01/24 06:42:18;;;;;;;22.45;4.03;;;;;;;10.24;95.06;101625.75;4957661;29;20066;-87
2024/01/24 06:44:59;;;;;;;20.37;4.10;;;;;;;10.29;95.51;101639.59;4933379;29;20091;-87
2024/01/24 06:47:25;;;;;;;19.88;4.35;;;;;;;10.22;95.91;101624.88;4937433;29;20024;-86
2024/01/24 06:49:51;;;;;;;22.48;4.95;;;;;;;10.20;94.40;101615.34;4938449;29;20074;-87
2024/01/24 06:52:16;;;;;;;22.57;5.07;;;;;;;10.34;93.47;101632.63;4938339;29;20051;-87
2024/01/24 06:55:02;;;;;;;21.53;4.40;;;;;;;10.25;93.11;101687.13;4937803;29;20028;-88
2024/01/24 06:57:27;;;;;;;21.50;4.68;;;;;;;10.27;92.76;101668.09;4938634;29;20028;-82
2024/01/24 06:59:53;;;;;;;20.70;4.30;;;;;;;10.24;92.83;101691.47;4938688;29;20031;-89
2024/01/24 07:02:18;;;;;;;22.27;4.40;;;;;;;10.18;92.50;101661.22;4939002;29;20055;-90
2024/01/24 07:04:44;;;;;;;21.03;4.27;;;;;;;10.10;93.36;101668.09;4939474;29;20067;-89
2024/01/24 07:07:25;;;;;;;23.53;4.50;;;;;;;10.02;92.90;101662.91;4938158;29;20028;-89
2024/01/24 07:09:50;;;;;;;23.27;4.55;;;;;;;10.03;93.78;101667.25;4937525;29;20115;-82
2024/01/24 07:12:16;;;;;;;18.43;3.67;;;;;;;9.97;94.15;101692.31;4938008;29;20070;-88
2024/01/24 07:14:41;;;;;;;22.03;4.43;;;;;;;9.85;93.72;101681.06;4937415;29;20023;-87
2024/01/24 07:17:06;;;;;;;19.63;4.23;;;;;;;9.85;93.96;101690.56;4937872;29;20091;-86
2024/01/24 07:19:32;;;;;;;20.87;4.00;;;;;;;9.76;93.84;101690.56;4937798;29;20047;-88
2024/01/24 07:21:57;;;;;;;22.30;4.90;;;;;;;9.73;94.05;101705.25;4936450;29;20051;-87
2024/01/24 07:24:22;;;;;;;23.50;4.83;;;;;;;9.68;93.54;101700.91;4937463;29;20476;-88
2024/01/24 07:26:48;;;;;;;24.60;5.10;;;;;;;9.69;93.39;101708.69;4938268;29;20030;-88
2024/01/24 07:29:13;;;;;;;24.73;4.73;;;;;;;9.68;94.02;101696.56;4937247;29;20032;-88
2024/01/24 07:31:41;;;;;;;20.17;4.50;;;;;;;9.67;94.67;101725.97;4938241;29;20107;-89
2024/01/24 07:34:24;;;;;;;21.73;4.55;;;;;;;9.64;93.56;101714.72;4937933;29;20562;-88
2024/01/24 07:36:49;;;;;;;22.92;4.43;;;;;;;9.64;93.93;101749.28;4938127;29;20031;-89
2024/01/24 07:39:25;;;;;;;23.80;4.93;;;;;;;9.57;93.13;101716.41;4937860;29;20107;-88
2024/01/24 07:41:50;;;;;;;22.38;4.28;;;;;;;9.70;92.69;101722.53;4938049;29;20491;-89
2024/01/24 07:44:15;;;;;;;22.77;4.87;;;;;;;9.62;91.59;101703.50;4937557;29;20039;-88
2024/01/24 07:46:55;;;;;;;23.57;4.53;;;;;;;9.54;91.58;101714.69;4937783;29;20034;-88
2024/01/24 07:49:39;;;;;;;23.45;4.60;;;;;;;9.55;91.48;101741.50;4937473;29;20389;-88
2024/01/24 07:52:04;;;;;;;24.02;4.18;;;;;;;9.49;91.17;101736.28;4943203;29;20050;-85
2024/01/24 07:54:30;;;;;;;22.20;4.67;;;;;;;9.54;90.31;101778.63;4943162;29;20031;-87
2024/01/24 07:57:04;;;;;;;23.07;4.23;;;;;;;9.41;90.14;101757.84;4938377;29;20432;-87
2024/01/24 07:59:30;;;;;;;22.83;4.57;;;;;;;9.39;88.65;101756.97;4937411;29;20024;-88
2024/01/24 08:01:56;;;;;;;23.57;4.67;;;;;;;9.48;88.59;101750.97;4938247;29;20027;-88
2024/01/24 08:04:24;;;;;;;21.73;4.33;;;;;;;9.42;89.08;101766.47;4937186;29;20460;-89
2024/01/24 08:06:50;;;;;;;20.05;4.50;;;;;;;9.33;88.82;101740.53;4937847;29;20032;-87
2024/01/24 08:09:34;;;;;;;21.70;4.67;;;;;;;9.34;89.34;101760.41;4938314;29;20039;-88
2024/01/24 08:11:59;;;;;;;22.00;4.13;;;;;;;9.38;89.58;101762.16;4938290;29;20180;-89
2024/01/24 08:14:24;;;;;;;20.53;3.97;;;;;;;9.21;89.19;101765.50;4938239;29;20153;-88
2024/01/24 08:17:04;;;;;;;20.80;4.20;;;;;;;9.34;89.16;101789.78;4938610;29;20119;-86
2024/01/24 08:19:29;;;;;;;20.80;4.50;;;;;;;9.32;88.28;101793.19;4937796;29;20083;-88
2024/01/24 08:21:55;;;;;;;20.80;4.03;;;;;;;9.32;89.16;101814.81;4952323;29;20042;-88
2024/01/24 08:24:21;;;;;;;19.17;3.87;;;;;;;9.29;89.75;101817.38;4959310;29;20051;-88
2024/01/24 08:26:46;;;;;;;22.60;4.80;;;;;;;9.26;89.39;101810.47;4959724;29;20480;-89
2024/01/24 08:29:12;;;;;;;23.30;4.93;;;;;;;9.31;88.71;101815.66;4951652;29;20035;-87
2024/01/24 08:31:37;;;;;;;22.13;4.50;;;;;;;9.34;89.48;101810.50;4949276;29;20108;-87
2024/01/24 08:34:03;;;;;;;23.50;4.63;;;;;;;9.33;89.44;101813.06;4964956;29;20082;-84
2024/01/24 08:36:28;;;;;;;23.43;5.20;;;;;;;9.39;89.22;101805.34;4941676;29;20024;-85
2024/01/24 08:38:53;;;;;;;20.73;4.17;;;;;;;9.33;88.90;101826.03;4940990;29;20096;-87
2024/01/24 08:41:19;;;;;;;22.37;4.00;;;;;;;9.40;89.53;101848.53;4953864;29;20029;-80
2024/01/24 08:43:44;;;;;;;21.80;4.73;;;;;;;9.38;89.06;101839.88;4954852;29;20031;-82
2024/01/24 08:46:09;;;;;;;23.13;4.33;;;;;;;9.39;89.21;101829.50;4954232;29;20031;-86
2024/01/24 08:48:34;;;;;;;17.93;3.77;;;;;;;9.42;89.89;101854.56;4953528;29;20051;-86
2024/01/24 08:51:00;;;;;;;19.97;4.20;;;;;;;9.39;90.23;101862.34;4955009;29;20114;-85
2024/01/24 08:53:25;;;;;;;19.93;4.23;;;;;;;9.46;87.86;101852.88;4953605;29;20082;-85
2024/01/24 08:55:54;;;;;;;18.27;3.97;;;;;;;9.41;89.62;101861.50;4952199;29;20551;-85
2024/01/24 08:58:34;;;;;;;17.70;4.32;;;;;;;9.38;89.66;101843.31;4937655;29;20035;-84
2024/01/24 09:00:59;;;;;;;20.27;4.47;;;;;;;9.35;88.87;101851.06;4934816;29;20040;-86
2024/01/24 09:03:37;;;;;;;19.67;4.23;;;;;;;9.38;88.40;101876.16;4933476;29;20559;-86
2024/01/24 09:06:22;;;;;;;20.52;4.15;;;;;;;9.35;88.70;101876.13;4933605;29;20024;-85
2024/01/24 09:09:06;;;;;;;21.10;3.83;;;;;;;9.41;88.79;101904.66;4932722;29;20036;-85
2024/01/24 09:11:49;;;;;;;21.25;4.57;;;;;;;9.34;88.93;101901.19;4933658;29;20032;-85
2024/01/24 09:14:15;;;;;;;19.20;4.05;;;;;;;9.41;89.26;101908.13;4932515;29;20067;-85
2024/01/24 09:16:40;;;;;;;21.43;4.60;;;;;;;9.44;89.17;101878.75;4934214;29;20062;-85
2024/01/24 09:19:14;;;;;;;21.73;4.43;;;;;;;9.43;88.73;101875.31;4934560;29;20102;-86
2024/01/24 09:21:50;;;;;;;17.52;3.65;;;;;;;9.36;88.93;101878.72;4934697;29;20032;-83
2024/01/24 09:24:30;;;;;;;19.45;4.28;;;;;;;9.40;89.54;101895.16;4940947;29;20093;-87
2024/01/24 09:26:56;;;;;;;21.58;4.40;;;;;;;9.51;88.54;101903.00;4966142;23;20499;-86
2024/01/24 09:29:21;;;;;;;21.80;4.70;;;;;;;9.53;88.09;101932.38;4953177;29;20034;-85
2024/01/24 09:31:46;;;;;;;19.73;4.30;;;;;;;9.57;88.21;101940.19;4954492;29;20027;-85
2024/01/24 09:34:12;;;;;;;20.60;4.20;;;;;;;9.58;88.54;101966.97;4953935;29;20028;-85
2024/01/24 09:36:38;;;;;;;21.27;3.90;;;;;;;9.62;88.31;101962.69;4953382;29;20089;-84
2024/01/24 09:39:15;;;;;;;21.10;4.47;;;;;;;9.52;88.62;101936.69;4919075;29;20093;-85
2024/01/24 09:41:41;;;;;;;23.75;4.90;;;;;;;9.63;87.61;101957.50;4954199;29;20035;-85
2024/01/24 09:44:09;;;;;;;24.00;4.50;;;;;;;9.65;87.46;101967.88;4952823;29;20034;-87
2024/01/24 09:46:41;;;;;;;18.98;4.53;;;;;;;9.60;88.38;101965.25;4954091;29;20039;-86
2024/01/24 09:49:07;;;;;;;22.85;4.45;;;;;;;9.58;86.92;101951.41;4954215;29;20027;-87
2024/01/24 09:51:34;;;;;;;22.07;4.43;;;;;;;9.66;88.37;101954.94;4958808;28;20022;-85
2024/01/24 09:54:19;;;;;;;21.77;4.45;;;;;;;9.57;88.68;101952.25;4973002;28;20041;-86
2024/01/24 09:56:45;;;;;;;20.90;4.35;;;;;;;9.69;87.42;101969.63;4972273;28;20546;-86
2024/01/24 09:59:22;;;;;;;19.17;3.90;;;;;;;9.63;88.95;101980.84;4973360;28;20054;-85
2024/01/24 10:02:05;;;;;;;18.77;4.10;;;;;;;9.56;89.02;101990.28;4977978;28;20031;-83
2024/01/24 10:04:37;;;;;;;19.48;3.60;;;;;;;9.64;88.58;101987.75;4972061;28;20113;-84
2024/01/24 10:07:04;;;;;;;24.05;4.53;;;;;;;9.70;87.67;102003.34;4964838;28;20031;-84
2024/01/24 10:09:29;;;;;;;23.33;4.95;;;;;;;9.68;87.51;102004.19;4962184;28;20054;-85
2024/01/24 10:11:55;;;;;;;20.07;3.80;;;;;;;9.69;88.00;102001.59;4962728;28;20070;-84
2024/01/24 10:14:20;;;;;;;19.27;4.13;;;;;;;9.70;87.74;102005.06;4961367;28;20066;-83
2024/01/24 10:16:45;;;;;;;18.30;3.97;;;;;;;9.71;87.00;102014.59;4963822;28;20030;-85
2024/01/24 10:19:11;;;;;;;21.80;4.33;;;;;;;9.73;87.22;102008.53;4964146;28;20023;-87
2024/01/24 10:21:47;;;;;;;21.37;4.60;;;;;;;9.78;86.66;102018.09;4973119;28;20030;-86
2024/01/24 10:24:12;;;;;;;;;;;;;;;9.92;85.33;102026.81;4979150;28;20027;-89
2024/01/24 10:26:41;;;;;;;22.23;4.57;;;;;;;9.94;86.33;102022.50;4979402;28;19925;-86
2024/01/24 10:29:19;;;;;;;23.00;4.40;;;;;;;9.88;86.14;102007.78;4973540;28;20428;-93
2024/01/24 10:31:53;;;;;;;18.63;4.45;;;;;;;10.03;85.17;102029.50;4973440;28;20110;-88
2024/01/24 10:34:28;;;;;;;24.52;5.00;;;;;;;10.02;84.02;102020.81;4960224;28;20035;-87
2024/01/24 10:37:11;;;;;;;19.50;4.20;;;;;;;10.13;83.99;102022.63;4954087;29;20472;-87
2024/01/24 10:39:37;;;;;;;24.65;4.60;;;;;;;10.05;83.59;102048.53;4953090;29;20031;-87
2024/01/24 10:42:26;;;;;;;23.38;4.93;;;;;;;10.07;82.86;102072.75;4953870;29;20023;-90
2024/01/24 10:45:08;;;;;;;22.90;4.75;;;;;;;10.02;84.18;102070.09;4956233;28;20094;-89
2024/01/24 10:47:57;;;;;;;21.42;4.60;;;;;;;10.02;83.99;102057.13;4974322;28;20027;-90
2024/01/24 10:50:24;;;;;;;21.73;4.10;;;;;;;10.01;83.87;102055.44;4964793;23;20142;-91
2024/01/24 10:52:50;;;;;;;21.73;4.55;;;;;;;10.00;83.21;102055.41;4955103;29;20031;-89
2024/01/24 10:55:17;;;;;;;20.80;4.43;;;;;;;10.01;84.24;102071.00;4955006;28;20048;-84
2024/01/24 10:57:54;;;;;;;20.80;4.20;;;;;;;9.91;83.67;102058.78;4957728;29;20480;-91
2024/01/24 11:00:42;;;;;;;19.98;4.00;;;;;;;10.04;84.12;102090.88;4960206;28;20027;-88
2024/01/24 11:03:17;;;;;;;22.80;4.07;;;;;;;9.99;83.60;102077.00;4957995;29;20043;-91
2024/01/24 11:06:02;;;;;;;20.08;3.85;;;;;;;9.95;82.68;102077.84;4958162;29;20029;-90
2024/01/24 11:09:07;;;;;;;21.70;4.55;;;;;;;10.06;83.45;102089.16;4958136;29;20032;-89
2024/01/24 11:11:33;;;;;;;21.25;4.40;;;;;;;10.06;82.16;102078.78;4958654;29;20035;-91
2024/01/24 11:14:04;;;;;;;21.08;4.47;;;;;;;10.02;82.43;102084.81;4966305;28;20027;-90
2024/01/24 11:16:45;;;;;;;19.88;4.03;;;;;;;9.95;82.08;102091.66;4977329;28;20135;-92
2024/01/24 11:19:22;;;;;;;19.63;3.80;;;;;;;9.97;82.45;102102.94;4977454;28;20029;-90
2024/01/24 11:22:08;;;;;;;;;;;;;;;9.97;83.34;102104.63;4977472;28;20031;-90
2024/01/24 11:24:55;;;;;;;20.92;4.53;;;;;;;9.91;82.93;102102.00;4977354;28;20004;-90
2024/01/24 11:27:35;;;;;;;18.88;3.90;;;;;;;9.82;83.28;102095.03;4975810;28;20062;-93
2024/01/24 11:30:06;;;;;;;20.85;4.03;;;;;;;9.93;83.48;102114.13;4977312;28;20027;-93
2024/01/24 11:32:57;;;;;;;18.00;4.40;;;;;;;9.95;83.17;102125.38;4976456;28;20026;-91
2024/01/24 11:35:32;;;;;;;20.55;4.18;;;;;;;9.93;82.81;102134.03;4977464;28;20491;-93
2024/01/24 11:38:22;;;;;;;19.98;4.10;;;;;;;9.94;83.68;102144.41;4976956;28;20062;-90
2024/01/24 11:40:51;;;;;;;17.00;3.47;;;;;;;9.82;84.02;102121.84;4970106;28;20049;-92